createdAt,value
2023-05-17T00:01:20.003Z,1.50
2023-05-17T00:03:47.998Z,1.92
2023-05-17T00:06:16.092Z,1.65
2023-05-17T00:08:44.077Z,1.70
2023-05-17T00:11:12.086Z,1.80
2023-05-17T00:13:41.169Z,1.83
2023-05-17T00:16:09.830Z,1.77
2023-05-17T00:18:39.349Z,1.80
2023-05-17T00:21:07.536Z,1.85
2023-05-17T00:23:35.588Z,1.50
2023-05-17T00:26:03.581Z,2.10
2023-05-17T00:28:31.612Z,1.77
2023-05-17T00:30:59.569Z,3.35
2023-05-17T00:33:27.531Z,2.00
2023-05-17T00:35:56.816Z,1.92
2023-05-17T00:38:24.832Z,2.22
2023-05-17T00:40:54.094Z,2.10
2023-05-17T00:43:22.293Z,2.00
2023-05-17T00:45:51.782Z,1.77
2023-05-17T00:48:21.323Z,2.20
2023-05-17T00:50:50.195Z,2.10
2023-05-17T00:53:20.048Z,2.22
2023-05-17T00:55:48.199Z,1.92
2023-05-17T00:58:16.522Z,1.98
2023-05-17T01:00:45.748Z,2.38
2023-05-17T01:03:13.951Z,2.25
2023-05-17T01:05:42.024Z,2.60
2023-05-17T01:08:10.051Z,2.30
2023-05-17T01:10:45.443Z,2.22
2023-05-17T01:13:19.624Z,2.58
2023-05-17T01:15:54.461Z,2.35
2023-05-17T01:18:29.490Z,2.42
2023-05-17T01:20:59.993Z,2.67
2023-05-17T01:23:46.680Z,2.28
2023-05-17T01:26:20.669Z,2.08
2023-05-17T01:28:54.289Z,2.33
2023-05-17T01:31:24.400Z,2.67
2023-05-17T01:33:52.423Z,2.50
2023-05-17T01:36:20.682Z,2.85
2023-05-17T01:38:48.583Z,2.75
2023-05-17T01:41:19.311Z,2.45
2023-05-17T01:43:52.493Z,2.63
2023-05-17T01:46:27.441Z,2.25
2023-05-17T01:49:07.502Z,2.88
2023-05-17T01:51:45.788Z,2.75
2023-05-17T01:54:15.947Z,2.30
2023-05-17T01:56:49.072Z,2.80
2023-05-17T01:59:24.245Z,2.75
2023-05-17T02:01:55.045Z,3.97
2023-05-17T02:04:23.147Z,2.63
2023-05-17T02:06:51.077Z,2.40
2023-05-17T02:09:19.019Z,2.80
2023-05-17T02:11:46.953Z,2.78
2023-05-17T02:14:15.610Z,2.55
2023-05-17T02:16:44.895Z,2.28
2023-05-17T02:19:14.282Z,2.30
2023-05-17T02:21:42.315Z,2.65
2023-05-17T02:24:10.285Z,3.00
2023-05-17T02:26:42.888Z,3.00
2023-05-17T02:29:11.141Z,2.80
2023-05-17T02:31:39.216Z,3.20
2023-05-17T02:34:08.545Z,2.75
2023-05-17T02:36:36.501Z,3.00
2023-05-17T02:39:04.492Z,2.88
2023-05-17T02:41:32.947Z,3.05
2023-05-17T02:44:01.123Z,2.85
2023-05-17T02:46:29.173Z,2.63
2023-05-17T02:48:57.025Z,2.95
2023-05-17T02:51:26.901Z,2.88
2023-05-17T02:53:54.869Z,2.75
2023-05-17T02:56:23.222Z,2.65
2023-05-17T02:58:51.193Z,3.03
2023-05-17T03:01:19.171Z,3.00
2023-05-17T03:03:47.691Z,2.80
2023-05-17T03:06:16.044Z,2.47
2023-05-17T03:08:46.005Z,3.00
2023-05-17T03:11:14.413Z,2.70
2023-05-17T03:13:42.308Z,2.95
2023-05-17T03:16:10.431Z,3.00
2023-05-17T03:18:38.500Z,3.25
2023-05-17T03:21:06.533Z,3.25
2023-05-17T03:23:35.007Z,3.30
2023-05-17T03:26:05.765Z,2.72
2023-05-17T03:28:40.410Z,2.90
2023-05-17T03:31:08.639Z,2.85
2023-05-17T03:33:36.814Z,3.17
2023-05-17T03:36:06.424Z,3.38
2023-05-17T03:38:34.420Z,3.35
2023-05-17T03:41:02.527Z,3.45
2023-05-17T03:43:31.930Z,2.80
2023-05-17T03:46:01.474Z,3.53
2023-05-17T03:48:30.526Z,2.97
2023-05-17T03:50:59.371Z,3.30
2023-05-17T03:53:28.784Z,2.90
2023-05-17T03:55:56.833Z,3.08
2023-05-17T03:58:24.942Z,3.33
2023-05-17T04:00:54.537Z,3.10
2023-05-17T04:03:22.446Z,3.78
2023-05-17T04:05:50.921Z,3.28
2023-05-17T04:08:19.125Z,3.25
2023-05-17T04:10:47.173Z,3.00
2023-05-17T04:13:15.238Z,3.42
2023-05-17T04:15:43.157Z,3.67
2023-05-17T04:18:12.633Z,3.50
2023-05-17T04:20:40.877Z,3.63
2023-05-17T04:23:09.860Z,3.17
2023-05-17T04:25:37.948Z,3.13
2023-05-17T04:28:05.939Z,3.17
2023-05-17T04:30:34.239Z,3.88
2023-05-17T04:33:02.738Z,3.05
2023-05-17T04:35:32.098Z,3.13
2023-05-17T04:38:00.517Z,3.30
2023-05-17T04:40:28.468Z,3.97
2023-05-17T04:42:56.661Z,3.45
2023-05-17T04:45:25.061Z,3.40
2023-05-17T04:47:53.608Z,3.45
2023-05-17T04:50:22.696Z,3.50
2023-05-17T04:52:53.121Z,3.15
2023-05-17T04:55:21.098Z,3.50
2023-05-17T04:57:49.631Z,3.50
2023-05-17T05:00:20.906Z,3.60
2023-05-17T05:02:54.689Z,3.25
2023-05-17T05:05:25.060Z,3.85
2023-05-17T05:07:54.467Z,3.10
2023-05-17T05:10:22.915Z,3.35
2023-05-17T05:12:51.094Z,3.60
2023-05-17T05:15:20.072Z,3.97
2023-05-17T05:17:54.749Z,3.60
2023-05-17T05:20:22.902Z,3.60
2023-05-17T05:22:50.824Z,4.03
2023-05-17T05:25:21.648Z,3.67
2023-05-17T05:27:49.821Z,3.22
2023-05-17T05:30:22.305Z,3.70
2023-05-17T05:32:52.783Z,3.08
2023-05-17T05:35:26.402Z,3.42
2023-05-17T05:40:24.553Z,3.25
2023-05-17T05:42:53.119Z,3.92
2023-05-17T05:45:22.376Z,3.70
2023-05-17T05:47:51.879Z,3.50
2023-05-17T05:50:20.159Z,3.42
2023-05-17T05:52:49.212Z,3.40
2023-05-17T05:55:17.118Z,3.72
2023-05-17T05:57:46.395Z,3.03
2023-05-17T06:00:15.437Z,3.00
2023-05-17T06:02:43.661Z,2.63
2023-05-17T06:05:11.887Z,2.92
2023-05-17T06:07:39.912Z,2.30
2023-05-17T06:10:08.945Z,2.83
2023-05-17T06:12:36.881Z,2.53
2023-05-17T06:15:08.337Z,2.45
2023-05-17T06:17:36.364Z,2.45
2023-05-17T06:20:05.166Z,2.53
2023-05-17T06:22:33.261Z,2.85
2023-05-17T06:25:01.213Z,2.80
2023-05-17T06:27:29.157Z,2.53
2023-05-17T06:29:57.121Z,2.25
2023-05-17T06:32:26.515Z,2.65
2023-05-17T06:34:56.621Z,2.20
2023-05-17T06:37:24.758Z,2.80
2023-05-17T06:40:00.019Z,2.00
2023-05-17T06:42:32.095Z,2.50
2023-05-17T06:45:00.498Z,1.98
2023-05-17T06:47:30.227Z,3.17
2023-05-17T06:49:59.449Z,1.80
2023-05-17T06:52:27.381Z,2.15
2023-05-17T06:54:55.456Z,2.38
2023-05-17T06:57:24.385Z,2.42
2023-05-17T06:59:52.867Z,2.72
2023-05-17T07:02:20.907Z,2.03
2023-05-17T07:04:50.216Z,2.30
2023-05-17T07:07:18.201Z,2.50
2023-05-17T07:09:46.130Z,2.10
2023-05-17T07:12:14.102Z,2.20
2023-05-17T07:14:42.059Z,2.60
2023-05-17T07:17:11.963Z,3.00
2023-05-17T07:19:40.039Z,3.28
2023-05-17T07:22:09.940Z,2.40
2023-05-17T07:24:38.134Z,2.30
2023-05-17T07:27:06.680Z,2.50
2023-05-17T07:29:34.585Z,2.85
2023-05-17T07:32:02.535Z,2.47
2023-05-17T07:34:31.663Z,2.78
2023-05-17T07:36:59.903Z,3.40
2023-05-17T07:39:29.187Z,2.60
2023-05-17T07:41:57.101Z,2.25
2023-05-17T07:44:27.508Z,2.70
2023-05-17T07:46:55.434Z,2.00
2023-05-17T07:49:24.580Z,2.17
2023-05-17T07:51:52.944Z,2.28
2023-05-17T07:54:25.412Z,2.40
2023-05-17T07:56:55.339Z,2.13
2023-05-17T07:59:23.519Z,2.38
2023-05-17T08:01:52.206Z,2.00
2023-05-17T08:04:20.261Z,2.25
2023-05-17T08:06:48.507Z,2.67
2023-05-17T08:09:16.842Z,2.42
2023-05-17T08:11:46.028Z,3.17
2023-05-17T08:14:16.885Z,2.40
2023-05-17T08:16:46.655Z,1.98
2023-05-17T08:19:16.441Z,2.13
2023-05-17T08:21:46.269Z,2.38
2023-05-17T08:24:14.318Z,2.33
2023-05-17T08:26:42.252Z,2.78
2023-05-17T08:29:10.148Z,2.88
2023-05-17T08:31:39.511Z,2.60
2023-05-17T08:34:10.092Z,2.15
2023-05-17T08:36:38.165Z,3.08
2023-05-17T08:39:08.417Z,1.50
2023-05-17T08:41:36.680Z,2.00
2023-05-17T08:44:06.480Z,2.30
2023-05-17T08:46:37.062Z,2.25
2023-05-17T08:49:07.936Z,2.35
2023-05-17T08:51:39.481Z,2.25
2023-05-17T08:54:08.441Z,3.83
2023-05-17T08:56:40.145Z,2.05
2023-05-17T08:59:10.678Z,2.40
2023-05-17T09:01:41.406Z,2.35
2023-05-17T09:04:11.741Z,2.53
2023-05-17T09:06:39.797Z,3.50
2023-05-17T09:09:08.520Z,2.38
2023-05-17T09:11:36.457Z,2.08
2023-05-17T09:14:05.910Z,2.63
2023-05-17T09:16:35.285Z,2.17
2023-05-17T09:19:05.306Z,2.20
2023-05-17T09:21:35.027Z,3.03
2023-05-17T09:24:07.134Z,2.75
2023-05-17T09:26:39.790Z,2.13
2023-05-17T09:29:10.398Z,1.90
2023-05-17T09:31:38.681Z,1.90
2023-05-17T09:34:08.288Z,2.53
2023-05-17T09:36:39.304Z,1.73
2023-05-17T09:39:12.170Z,2.75
2023-05-17T09:41:45.538Z,2.03
2023-05-17T09:44:15.305Z,2.10
2023-05-17T09:46:45.369Z,1.92
2023-05-17T09:49:14.146Z,2.35
2023-05-17T09:51:44.628Z,2.15
2023-05-17T09:54:12.661Z,2.22
2023-05-17T09:56:41.063Z,2.17
2023-05-17T09:59:13.951Z,2.03
2023-05-17T10:01:43.296Z,2.03
2023-05-17T10:04:12.221Z,2.50
2023-05-17T10:09:15.707Z,2.45
2023-05-17T10:11:47.588Z,1.95
2023-05-17T10:14:22.593Z,2.83
2023-05-17T10:16:52.209Z,1.83
2023-05-17T10:19:21.943Z,1.92
2023-05-17T10:21:51.896Z,1.50
2023-05-17T10:24:22.057Z,2.42
2023-05-17T10:26:51.159Z,2.20
2023-05-17T10:29:20.947Z,2.08
2023-05-17T10:31:51.965Z,1.90
2023-05-17T10:34:20.921Z,1.95
2023-05-17T10:36:50.899Z,2.25
2023-05-17T10:39:19.042Z,2.50
2023-05-17T10:41:53.017Z,2.42
2023-05-17T10:44:21.162Z,2.88
2023-05-17T10:46:53.722Z,2.92
2023-05-17T10:49:24.527Z,2.40
2023-05-17T10:51:52.961Z,1.95
2023-05-17T10:54:20.991Z,2.10
2023-05-17T10:56:51.449Z,2.40
2023-05-17T10:59:22.742Z,2.10
2023-05-17T11:01:52.993Z,2.08
2023-05-17T11:04:26.170Z,2.00
2023-05-17T11:06:56.076Z,2.38
2023-05-17T11:09:25.126Z,1.80
2023-05-17T11:12:08.420Z,2.03
2023-05-17T11:14:53.333Z,1.95
2023-05-17T11:17:23.347Z,2.90
2023-05-17T11:19:58.046Z,2.30
2023-05-17T11:22:26.818Z,1.95
2023-05-17T11:24:57.999Z,2.15
2023-05-17T11:27:28.878Z,2.40
2023-05-17T11:29:57.515Z,1.95
2023-05-17T11:32:29.108Z,2.30
2023-05-17T11:35:01.096Z,2.15
2023-05-17T11:37:31.166Z,2.10
2023-05-17T11:40:07.254Z,2.53
2023-05-17T11:42:37.303Z,2.20
2023-05-17T11:45:06.473Z,2.65
2023-05-17T11:47:34.580Z,2.00
2023-05-17T11:50:03.510Z,2.08
2023-05-17T11:52:32.447Z,2.20
2023-05-17T11:55:01.436Z,1.60
2023-05-17T11:57:31.734Z,1.75
2023-05-17T12:00:02.029Z,2.08
2023-05-17T12:02:31.380Z,2.10
2023-05-17T12:05:00.160Z,1.92
2023-05-17T12:07:29.682Z,2.10
2023-05-17T12:09:57.604Z,1.98
2023-05-17T12:12:27.151Z,2.28
2023-05-17T12:14:55.090Z,1.90
2023-05-17T12:17:32.396Z,2.20
2023-05-17T12:20:08.375Z,2.05
2023-05-17T12:22:52.176Z,2.38
2023-05-17T12:25:20.870Z,1.77
2023-05-17T12:27:50.371Z,2.35
2023-05-17T12:30:18.947Z,1.92
2023-05-17T12:32:48.710Z,2.53
2023-05-17T12:35:17.080Z,1.92
2023-05-17T12:37:45.701Z,2.22
2023-05-17T12:40:14.267Z,1.90
2023-05-17T12:42:43.852Z,2.22
2023-05-17T12:45:13.687Z,2.15
2023-05-17T12:47:41.703Z,1.98
2023-05-17T12:50:12.614Z,1.92
2023-05-17T12:52:42.194Z,2.15
2023-05-17T12:55:14.405Z,2.33
2023-05-17T12:57:50.313Z,2.03
2023-05-17T13:00:19.502Z,2.20
2023-05-17T13:02:47.735Z,2.08
2023-05-17T13:05:21.499Z,2.10
2023-05-17T13:07:50.005Z,2.50
2023-05-17T13:10:22.746Z,2.40
2023-05-17T13:12:58.458Z,1.83
2023-05-17T13:15:30.797Z,1.75
2023-05-17T13:17:59.956Z,1.98
2023-05-17T13:20:29.662Z,2.00
2023-05-17T13:22:57.834Z,2.30
2023-05-17T13:25:25.880Z,1.85
2023-05-17T13:27:55.423Z,2.40
2023-05-17T13:30:23.555Z,2.33
2023-05-17T13:32:51.932Z,2.00
2023-05-17T13:35:19.907Z,2.28
2023-05-17T13:37:49.212Z,1.90
2023-05-17T13:40:17.269Z,2.05
2023-05-17T13:42:45.128Z,2.75
2023-05-17T13:45:13.759Z,2.15
2023-05-17T13:47:42.079Z,2.13
2023-05-17T13:50:12.166Z,2.03
2023-05-17T13:52:40.132Z,2.60
2023-05-17T13:55:10.139Z,1.90
2023-05-17T13:57:38.008Z,2.45
2023-05-17T14:00:07.368Z,2.08
2023-05-17T14:02:35.385Z,1.95
2023-05-17T14:05:04.764Z,2.70
2023-05-17T14:07:32.672Z,1.80
2023-05-17T14:10:00.901Z,2.10
2023-05-17T14:12:30.239Z,2.90
2023-05-17T14:14:58.214Z,1.90
2023-05-17T14:17:26.163Z,1.83
2023-05-17T14:19:54.095Z,2.17
2023-05-17T14:22:22.501Z,2.20
2023-05-17T14:24:50.414Z,1.83
2023-05-17T14:27:18.366Z,2.08
2023-05-17T14:29:47.604Z,2.60
2023-05-17T14:32:15.612Z,2.03
2023-05-17T14:34:43.518Z,2.33
2023-05-17T14:37:11.883Z,2.15
2023-05-17T14:39:39.756Z,1.90
2023-05-17T14:42:07.801Z,2.20
2023-05-17T14:44:38.772Z,2.42
2023-05-17T14:47:09.641Z,1.73
2023-05-17T14:49:37.741Z,2.00
2023-05-17T14:52:06.124Z,2.05
2023-05-17T14:54:35.565Z,2.40
2023-05-17T14:57:03.528Z,2.08
2023-05-17T14:59:31.515Z,1.77
2023-05-17T15:02:00.371Z,2.05
2023-05-17T15:04:29.695Z,2.05
2023-05-17T15:06:58.933Z,2.33
2023-05-17T15:09:26.845Z,1.98
2023-05-17T15:11:54.878Z,2.05
2023-05-17T15:14:24.394Z,2.30
2023-05-17T15:16:54.023Z,1.88
2023-05-17T15:19:22.278Z,2.00
2023-05-17T15:21:51.894Z,1.88
2023-05-17T15:24:19.812Z,2.45
2023-05-17T15:26:47.868Z,2.22
2023-05-17T15:29:16.039Z,1.85
2023-05-17T15:31:44.043Z,2.13
2023-05-17T15:34:12.092Z,1.73
2023-05-17T15:36:40.385Z,2.08
2023-05-17T15:39:10.500Z,2.60
2023-05-17T15:41:39.775Z,2.53
2023-05-17T15:44:08.992Z,1.90
2023-05-17T15:46:36.937Z,1.98
2023-05-17T15:49:04.961Z,1.88
2023-05-17T15:51:32.878Z,2.08
2023-05-17T15:54:00.807Z,1.88
2023-05-17T15:56:30.237Z,1.92
2023-05-17T15:58:58.712Z,2.10
2023-05-17T16:01:27.737Z,2.35
2023-05-17T16:03:55.913Z,2.10
2023-05-17T16:06:23.787Z,1.88
2023-05-17T16:08:51.688Z,2.05
2023-05-17T16:11:19.571Z,1.90
2023-05-17T16:13:48.920Z,2.28
2023-05-17T16:16:16.859Z,1.90
2023-05-17T16:18:44.967Z,2.28
2023-05-17T16:21:13.560Z,2.25
2023-05-17T16:23:41.544Z,2.00
2023-05-17T16:26:09.864Z,1.95
2023-05-17T16:28:37.876Z,2.13
2023-05-17T16:31:07.315Z,1.95
2023-05-17T16:33:35.630Z,1.90
2023-05-17T16:36:04.453Z,1.80
2023-05-17T16:38:32.362Z,1.52
2023-05-17T16:41:03.072Z,1.75
2023-05-17T16:43:31.210Z,2.00
2023-05-17T16:45:59.198Z,1.52
2023-05-17T16:48:28.709Z,1.52
2023-05-17T16:50:58.278Z,2.03
2023-05-17T16:53:28.128Z,2.10
2023-05-17T16:55:56.180Z,1.67
2023-05-17T16:58:24.063Z,2.00
2023-05-17T17:00:53.001Z,1.73
2023-05-17T17:03:21.047Z,1.50
2023-05-17T17:05:50.386Z,1.98
2023-05-17T17:08:18.339Z,1.60
2023-05-17T17:10:46.264Z,1.80
2023-05-17T17:13:15.032Z,2.10
2023-05-17T17:15:42.998Z,2.08
2023-05-17T17:18:11.381Z,1.80
2023-05-17T17:20:39.321Z,1.83
2023-05-17T17:23:08.626Z,2.00
2023-05-17T17:25:36.525Z,2.53
2023-05-17T17:28:04.510Z,1.58
2023-05-17T17:30:33.138Z,2.28
2023-05-17T17:33:01.428Z,1.90
2023-05-17T17:35:29.396Z,2.15
2023-05-17T17:37:57.330Z,1.80
2023-05-17T17:40:27.509Z,2.10
2023-05-17T17:42:55.490Z,1.77
2023-05-17T17:45:23.700Z,1.90
2023-05-17T17:47:51.844Z,2.13
2023-05-17T17:50:19.913Z,1.45
2023-05-17T17:52:48.065Z,1.95
2023-05-17T17:55:16.073Z,2.00
2023-05-17T17:57:45.675Z,1.83
2023-05-17T18:00:16.044Z,1.88
2023-05-17T18:02:44.135Z,1.73
2023-05-17T18:05:12.600Z,2.20
2023-05-17T18:07:40.887Z,2.45
2023-05-17T18:10:09.348Z,1.98
2023-05-17T18:12:37.317Z,1.80
2023-05-17T18:15:07.558Z,1.60
2023-05-17T18:17:35.562Z,1.85
2023-05-17T18:20:03.549Z,2.00
2023-05-17T18:22:31.400Z,1.60
2023-05-17T18:24:59.534Z,1.63
2023-05-17T18:27:27.507Z,1.98
2023-05-17T18:29:55.449Z,2.30
2023-05-17T18:32:24.850Z,1.55
2023-05-17T18:34:53.152Z,1.88
2023-05-17T18:37:21.029Z,2.08
2023-05-17T18:39:48.958Z,1.52
2023-05-17T18:42:16.901Z,1.70
2023-05-17T18:44:44.839Z,1.90
2023-05-17T18:47:12.779Z,1.60
2023-05-17T18:49:46.440Z,1.77
2023-05-17T18:52:14.567Z,1.70
2023-05-17T18:54:42.491Z,1.80
2023-05-17T18:57:11.920Z,1.85
2023-05-17T18:59:39.939Z,1.98
2023-05-17T19:02:08.948Z,2.00
2023-05-17T19:04:37.416Z,2.03
2023-05-17T19:07:06.950Z,1.58
2023-05-17T19:09:34.864Z,2.40
2023-05-17T19:12:02.789Z,1.65
2023-05-17T19:14:32.053Z,1.63
2023-05-17T19:17:00.233Z,2.22
2023-05-17T19:19:28.362Z,1.80
2023-05-17T19:21:56.466Z,1.92
2023-05-17T19:24:26.054Z,2.65
2023-05-17T19:26:53.983Z,2.28
2023-05-17T19:29:22.320Z,2.05
2023-05-17T19:31:50.511Z,2.10
2023-05-17T19:34:18.629Z,1.80
2023-05-17T19:36:46.560Z,1.70
2023-05-17T19:39:14.969Z,1.85
2023-05-17T19:41:44.302Z,1.55
2023-05-17T19:44:12.680Z,1.83
2023-05-17T19:46:40.653Z,1.60
2023-05-17T19:49:08.765Z,1.52
2023-05-17T19:51:36.827Z,1.90
2023-05-17T19:54:05.109Z,1.63
2023-05-17T19:56:33.029Z,1.55
2023-05-17T19:59:03.792Z,2.05
2023-05-17T20:01:31.832Z,1.63
2023-05-17T20:03:59.966Z,1.70
2023-05-17T20:06:28.052Z,1.65
2023-05-17T20:08:56.098Z,1.60
2023-05-17T20:11:23.999Z,1.63
2023-05-17T20:13:51.979Z,1.42
2023-05-17T20:16:21.376Z,2.00
2023-05-17T20:18:49.513Z,2.08
2023-05-17T20:21:19.594Z,2.13
2023-05-17T20:23:47.933Z,1.60
2023-05-17T20:26:19.021Z,1.83
2023-05-17T20:28:47.073Z,1.90
2023-05-17T20:31:14.957Z,1.55
2023-05-17T20:33:44.546Z,1.90
2023-05-17T20:36:14.489Z,2.00
2023-05-17T20:38:43.504Z,1.92
2023-05-17T20:41:11.692Z,1.80
2023-05-17T20:43:39.721Z,2.28
2023-05-17T20:46:09.405Z,2.05
2023-05-17T20:48:38.894Z,2.08
2023-05-17T20:51:08.258Z,1.67
2023-05-17T20:53:36.259Z,2.70
2023-05-17T20:56:04.259Z,1.90
2023-05-17T20:58:32.225Z,1.73
2023-05-17T21:01:01.186Z,2.00
2023-05-17T21:03:33.878Z,2.10
2023-05-17T21:06:05.063Z,1.35
2023-05-17T21:08:34.927Z,1.60
2023-05-17T21:11:02.846Z,1.92
2023-05-17T21:13:31.061Z,2.17
2023-05-17T21:15:59.107Z,1.77
2023-05-17T21:18:27.157Z,1.90
2023-05-17T21:20:55.215Z,1.90
2023-05-17T21:23:23.261Z,1.63
2023-05-17T21:25:52.926Z,1.63
2023-05-17T21:28:20.980Z,1.77
2023-05-17T21:30:49.246Z,1.77
2023-05-17T21:33:17.312Z,1.92
2023-05-17T21:35:45.418Z,2.25
2023-05-17T21:38:13.795Z,2.35
2023-05-17T21:40:42.126Z,2.22
2023-05-17T21:43:11.764Z,1.88
2023-05-17T21:45:39.977Z,2.22
2023-05-17T21:48:08.167Z,1.60
2023-05-17T21:50:36.208Z,1.90
2023-05-17T21:53:04.174Z,1.35
2023-05-17T21:55:36.977Z,2.17
2023-05-17T21:58:16.397Z,1.58
2023-05-17T22:00:44.406Z,1.55
2023-05-17T22:03:12.582Z,1.95
2023-05-17T22:05:40.889Z,1.85
2023-05-17T22:08:08.832Z,1.77
2023-05-17T22:10:37.102Z,1.50
2023-05-17T22:13:06.107Z,1.98
2023-05-17T22:15:36.247Z,1.45
2023-05-17T22:18:05.167Z,2.45
2023-05-17T22:20:33.540Z,1.70
2023-05-17T22:23:01.587Z,1.50
2023-05-17T22:25:29.693Z,1.80
2023-05-17T22:27:57.602Z,1.48
2023-05-17T22:30:25.596Z,1.70
2023-05-17T22:32:57.220Z,1.58
2023-05-17T22:35:25.672Z,1.63
2023-05-17T22:37:53.751Z,2.08
2023-05-17T22:40:22.303Z,1.92
2023-05-17T22:42:51.843Z,1.80
2023-05-17T22:45:19.806Z,2.65
2023-05-17T22:47:47.843Z,1.60
2023-05-17T22:50:19.106Z,1.75
2023-05-17T22:52:47.215Z,1.50
2023-05-17T22:55:15.136Z,1.45
2023-05-17T22:57:43.037Z,1.55
2023-05-17T23:00:12.026Z,1.50
2023-05-17T23:02:40.016Z,1.25
2023-05-17T23:05:08.514Z,1.70
2023-05-17T23:07:38.340Z,1.55
2023-05-17T23:10:07.400Z,1.70
2023-05-17T23:12:36.512Z,1.45
2023-05-17T23:15:05.158Z,2.22
2023-05-17T23:17:33.722Z,1.70
2023-05-17T23:20:07.071Z,1.45
2023-05-17T23:22:35.080Z,1.38
2023-05-17T23:25:05.939Z,1.50
2023-05-17T23:27:35.299Z,1.77
2023-05-17T23:30:04.513Z,1.60
2023-05-17T23:32:33.973Z,1.80
2023-05-17T23:35:04.115Z,1.58
2023-05-17T23:37:32.331Z,1.92
2023-05-17T23:40:01.100Z,1.33
2023-05-17T23:42:30.480Z,1.73
2023-05-17T23:44:58.735Z,1.65
2023-05-17T23:47:28.071Z,1.50
2023-05-17T23:49:56.399Z,1.30
2023-05-17T23:52:24.440Z,1.40
2023-05-17T23:54:57.222Z,1.42
2023-05-17T23:57:25.749Z,1.52
2023-05-17T23:59:55.072Z,1.73
